sensor_id;sensor_type;location;lat;lon;timestamp;pressure;altitude;pressure_sealevel;temperature;humidity
72438;BME280;60444;43.534;-5.674;2023-04-19T00:01:14;101331.47;;;13.72;100.00
72438;BME280;60444;43.534;-5.674;2023-04-19T00:03:40;101339.22;;;13.80;100.00
72438;BME280;60444;43.534;-5.674;2023-04-19T00:06:05;101329.44;;;13.77;100.00
72438;BME280;60444;43.534;-5.674;2023-04-19T00:08:32;101321.41;;;13.74;100.00
72438;BME280;60444;43.534;-5.674;2023-04-19T00:10:58;101333.09;;;13.76;100.00
72438;BME280;60444;43.534;-5.674;2023-04-19T00:13:24;101323.69;;;13.66;100.00
72438;BME280;60444;43.534;-5.674;2023-04-19T00:15:49;101329.56;;;13.74;100.00
72438;BME280;60444;43.534;-5.674;2023-04-19T00:18:15;101307.59;;;13.62;100.00
72438;BME280;60444;43.534;-5.674;2023-04-19T00:20:40;101315.25;;;13.71;100.00
72438;BME280;60444;43.534;-5.674;2023-04-19T00:23:06;101307.19;;;13.69;100.00
72438;BME280;60444;43.534;-5.674;2023-04-19T00:25:31;101327.31;;;13.82;100.00
72438;BME280;60444;43.534;-5.674;2023-04-19T00:27:59;101316.78;;;13.76;100.00
72438;BME280;60444;43.534;-5.674;2023-04-19T00:30:24;101320.59;;;13.72;100.00
72438;BME280;60444;43.534;-5.674;2023-04-19T00:32:50;101307.00;;;13.72;100.00
72438;BME280;60444;43.534;-5.674;2023-04-19T00:35:15;101307.66;;;13.77;100.00
72438;BME280;60444;43.534;-5.674;2023-04-19T00:37:41;101292.66;;;13.70;100.00
72438;BME280;60444;43.534;-5.674;2023-04-19T00:40:07;101303.44;;;13.72;100.00
72438;BME280;60444;43.534;-5.674;2023-04-19T00:42:33;101295.38;;;13.70;100.00
72438;BME280;60444;43.534;-5.674;2023-04-19T00:44:58;101305.28;;;13.71;100.00
72438;BME280;60444;43.534;-5.674;2023-04-19T00:47:24;101306.97;;;13.74;100.00
72438;BME280;60444;43.534;-5.674;2023-04-19T00:49:49;101291.16;;;13.65;100.00
72438;BME280;60444;43.534;-5.674;2023-04-19T00:52:15;101300.81;;;13.70;100.00
72438;BME280;60444;43.534;-5.674;2023-04-19T00:54:42;101296.50;;;13.66;100.00
72438;BME280;60444;43.534;-5.674;2023-04-19T00:57:07;101304.94;;;13.77;100.00
72438;BME280;60444;43.534;-5.674;2023-04-19T00:59:34;101298.53;;;13.78;100.00
72438;BME280;60444;43.534;-5.674;2023-04-19T01:01:59;101306.59;;;13.80;100.00
72438;BME280;60444;43.534;-5.674;2023-04-19T01:04:25;101288.16;;;13.69;100.00
72438;BME280;60444;43.534;-5.674;2023-04-19T01:06:51;101271.22;;;13.64;100.00
72438;BME280;60444;43.534;-5.674;2023-04-19T01:09:16;101292.38;;;13.75;100.00
72438;BME280;60444;43.534;-5.674;2023-04-19T01:11:42;101260.06;;;13.53;100.00
72438;BME280;60444;43.534;-5.674;2023-04-19T01:14:07;101260.06;;;13.53;100.00
72438;BME280;60444;43.534;-5.674;2023-04-19T01:16:33;101267.88;;;13.59;100.00
72438;BME280;60444;43.534;-5.674;2023-04-19T01:19:00;101238.19;;;13.39;100.00
72438;BME280;60444;43.534;-5.674;2023-04-19T01:21:26;101253.19;;;13.46;100.00
72438;BME280;60444;43.534;-5.674;2023-04-19T01:23:53;101249.75;;;13.42;100.00
72438;BME280;60444;43.534;-5.674;2023-04-19T01:26:19;101228.69;;;13.30;100.00
72438;BME280;60444;43.534;-5.674;2023-04-19T01:28:45;101229.63;;;13.29;100.00
72438;BME280;60444;43.534;-5.674;2023-04-19T01:31:10;101249.28;;;13.34;100.00
72438;BME280;60444;43.534;-5.674;2023-04-19T01:33:36;101238.28;;;13.37;100.00
72438;BME280;60444;43.534;-5.674;2023-04-19T01:36:01;101246.97;;;13.44;100.00
72438;BME280;60444;43.534;-5.674;2023-04-19T01:38:27;101211.75;;;13.25;100.00
72438;BME280;60444;43.534;-5.674;2023-04-19T01:40:52;101203.84;;;13.21;100.00
72438;BME280;60444;43.534;-5.674;2023-04-19T01:43:20;101217.88;;;13.29;100.00
72438;BME280;60444;43.534;-5.674;2023-04-19T01:45:46;101225.53;;;13.38;100.00
72438;BME280;60444;43.534;-5.674;2023-04-19T01:48:11;101216.31;;;13.25;100.00
72438;BME280;60444;43.534;-5.674;2023-04-19T01:50:37;101227.53;;;13.34;100.00
72438;BME280;60444;43.534;-5.674;2023-04-19T01:53:02;101218.22;;;13.23;100.00
72438;BME280;60444;43.534;-5.674;2023-04-19T01:55:28;101234.03;;;13.32;100.00
72438;BME280;60444;43.534;-5.674;2023-04-19T01:57:53;101223.66;;;13.23;100.00
72438;BME280;60444;43.534;-5.674;2023-04-19T02:00:19;101201.00;;;13.07;100.00
72438;BME280;60444;43.534;-5.674;2023-04-19T02:02:45;101209.06;;;13.08;100.00
72438;BME280;60444;43.534;-5.674;2023-04-19T02:05:11;101225.72;;;13.18;100.00
72438;BME280;60444;43.534;-5.674;2023-04-19T02:07:36;101224.28;;;13.11;100.00
72438;BME280;60444;43.534;-5.674;2023-04-19T02:10:03;101207.91;;;12.95;100.00
72438;BME280;60444;43.534;-5.674;2023-04-19T02:12:30;101226.56;;;13.03;100.00
72438;BME280;60444;43.534;-5.674;2023-04-19T02:14:56;101228.16;;;13.07;100.00
72438;BME280;60444;43.534;-5.674;2023-04-19T02:17:22;101210.63;;;12.95;100.00
72438;BME280;60444;43.534;-5.674;2023-04-19T02:19:48;101205.59;;;12.88;100.00
72438;BME280;60444;43.534;-5.674;2023-04-19T02:22:13;101207.19;;;12.92;100.00
72438;BME280;60444;43.534;-5.674;2023-04-19T02:24:39;101213.50;;;12.92;100.00
72438;BME280;60444;43.534;-5.674;2023-04-19T02:27:04;101211.00;;;12.88;100.00
72438;BME280;60444;43.534;-5.674;2023-04-19T02:29:31;101200.25;;;12.86;100.00
72438;BME280;60444;43.534;-5.674;2023-04-19T02:31:57;101197.91;;;12.79;100.00
72438;BME280;60444;43.534;-5.674;2023-04-19T02:34:23;101196.91;;;12.81;100.00
72438;BME280;60444;43.534;-5.674;2023-04-19T02:36:48;101219.75;;;12.94;100.00
72438;BME280;60444;43.534;-5.674;2023-04-19T02:39:14;101205.97;;;12.80;100.00
72438;BME280;60444;43.534;-5.674;2023-04-19T02:41:40;101209.28;;;12.87;100.00
72438;BME280;60444;43.534;-5.674;2023-04-19T02:44:06;101218.34;;;12.86;100.00
72438;BME280;60444;43.534;-5.674;2023-04-19T02:46:32;101209.59;;;12.81;100.00
72438;BME280;60444;43.534;-5.674;2023-04-19T02:49:01;101218.69;;;12.80;100.00
72438;BME280;60444;43.534;-5.674;2023-04-19T02:51:26;101207.41;;;12.70;100.00
72438;BME280;60444;43.534;-5.674;2023-04-19T02:53:52;101197.03;;;12.61;100.00
72438;BME280;60444;43.534;-5.674;2023-04-19T02:56:17;101196.06;;;12.62;100.00
72438;BME280;60444;43.534;-5.674;2023-04-19T02:58:43;101204.78;;;12.69;100.00
72438;BME280;60444;43.534;-5.674;2023-04-19T03:01:09;101206.06;;;12.62;100.00
72438;BME280;60444;43.534;-5.674;2023-04-19T03:03:34;101211.31;;;12.65;100.00
72438;BME280;60444;43.534;-5.674;2023-04-19T03:06:01;101198.31;;;12.54;100.00
72438;BME280;60444;43.534;-5.674;2023-04-19T03:08:27;101202.84;;;12.53;100.00
72438;BME280;60444;43.534;-5.674;2023-04-19T03:10:52;101203.66;;;12.56;100.00
72438;BME280;60444;43.534;-5.674;2023-04-19T03:13:18;101197.59;;;12.50;100.00
72438;BME280;60444;43.534;-5.674;2023-04-19T03:15:43;101215.16;;;12.61;100.00
72438;BME280;60444;43.534;-5.674;2023-04-19T03:18:08;101199.34;;;12.51;100.00
72438;BME280;60444;43.534;-5.674;2023-04-19T03:20:34;101196.47;;;12.55;100.00
72438;BME280;60444;43.534;-5.674;2023-04-19T03:22:59;101197.41;;;12.53;100.00
72438;BME280;60444;43.534;-5.674;2023-04-19T03:25:25;101208.69;;;12.63;100.00
72438;BME280;60444;43.534;-5.674;2023-04-19T03:27:50;101200.47;;;12.65;100.00
72438;BME280;60444;43.534;-5.674;2023-04-19T03:30:16;101211.88;;;12.71;100.00
72438;BME280;60444;43.534;-5.674;2023-04-19T03:32:42;101202.00;;;12.70;100.00
72438;BME280;60444;43.534;-5.674;2023-04-19T03:35:08;101178.03;;;12.61;100.00
72438;BME280;60444;43.534;-5.674;2023-04-19T03:37:34;101200.00;;;12.74;100.00
72438;BME280;60444;43.534;-5.674;2023-04-19T03:40:00;101194.78;;;12.69;100.00
72438;BME280;60444;43.534;-5.674;2023-04-19T03:42:25;101198.25;;;12.73;100.00
72438;BME280;60444;43.534;-5.674;2023-04-19T03:44:51;101179.56;;;12.67;100.00
72438;BME280;60444;43.534;-5.674;2023-04-19T03:47:16;101193.13;;;12.67;100.00
72438;BME280;60444;43.534;-5.674;2023-04-19T03:49:42;101190.41;;;12.67;100.00
72438;BME280;60444;43.534;-5.674;2023-04-19T03:52:07;101210.59;;;12.78;100.00
72438;BME280;60444;43.534;-5.674;2023-04-19T03:54:33;101188.91;;;12.61;100.00
72438;BME280;60444;43.534;-5.674;2023-04-19T03:56:58;101213.78;;;12.69;100.00
72438;BME280;60444;43.534;-5.674;2023-04-19T03:59:24;101197.97;;;12.60;100.00
72438;BME280;60444;43.534;-5.674;2023-04-19T04:01:50;101218.50;;;12.66;100.00
72438;BME280;60444;43.534;-5.674;2023-04-19T04:04:15;101208.84;;;12.60;100.00
72438;BME280;60444;43.534;-5.674;2023-04-19T04:06:41;101188.13;;;12.40;100.00
72438;BME280;60444;43.534;-5.674;2023-04-19T04:09:06;101215.78;;;12.48;100.00
72438;BME280;60444;43.534;-5.674;2023-04-19T04:11:32;101197.53;;;12.33;100.00
72438;BME280;60444;43.534;-5.674;2023-04-19T04:13:57;101190.75;;;12.25;100.00
72438;BME280;60444;43.534;-5.674;2023-04-19T04:16:23;101222.94;;;12.32;100.00
72438;BME280;60444;43.534;-5.674;2023-04-19T04:18:48;101196.09;;;12.26;100.00
72438;BME280;60444;43.534;-5.674;2023-04-19T04:21:14;101210.47;;;12.28;100.00
72438;BME280;60444;43.534;-5.674;2023-04-19T04:23:39;101204.41;;;12.23;100.00
72438;BME280;60444;43.534;-5.674;2023-04-19T04:26:06;101206.47;;;12.18;100.00
72438;BME280;60444;43.534;-5.674;2023-04-19T04:28:34;101215.72;;;12.31;100.00
72438;BME280;60444;43.534;-5.674;2023-04-19T04:31:00;101212.22;;;12.29;100.00
72438;BME280;60444;43.534;-5.674;2023-04-19T04:33:26;101204.78;;;12.16;100.00
72438;BME280;60444;43.534;-5.674;2023-04-19T04:35:53;101204.41;;;12.23;100.00
72438;BME280;60444;43.534;-5.674;2023-04-19T04:38:19;101211.44;;;12.27;100.00
72438;BME280;60444;43.534;-5.674;2023-04-19T04:40:52;101210.63;;;12.25;100.00
72438;BME280;60444;43.534;-5.674;2023-04-19T04:43:19;101215.25;;;12.23;100.00
72438;BME280;60444;43.534;-5.674;2023-04-19T04:45:46;101217.31;;;12.18;100.00
72438;BME280;60444;43.534;-5.674;2023-04-19T04:48:11;101192.13;;;11.98;100.00
72438;BME280;60444;43.534;-5.674;2023-04-19T04:50:37;101197.28;;;12.02;100.00
72438;BME280;60444;43.534;-5.674;2023-04-19T04:53:03;101206.19;;;12.06;100.00
72438;BME280;60444;43.534;-5.674;2023-04-19T04:55:28;101199.16;;;12.02;100.00
72438;BME280;60444;43.534;-5.674;2023-04-19T04:57:53;101206.03;;;12.09;100.00
72438;BME280;60444;43.534;-5.674;2023-04-19T05:00:19;101199.00;;;12.05;100.00
72438;BME280;60444;43.534;-5.674;2023-04-19T05:02:45;101191.88;;;12.02;100.00
72438;BME280;60444;43.534;-5.674;2023-04-19T05:05:11;101208.66;;;12.10;100.00
72438;BME280;60444;43.534;-5.674;2023-04-19T05:07:36;101203.03;;;12.15;100.00
72438;BME280;60444;43.534;-5.674;2023-04-19T05:10:02;101210.53;;;12.27;100.00
72438;BME280;60444;43.534;-5.674;2023-04-19T05:12:27;101193.84;;;12.17;100.00
72438;BME280;60444;43.534;-5.674;2023-04-19T05:14:52;101207.56;;;12.14;100.00
72438;BME280;60444;43.534;-5.674;2023-04-19T05:17:18;101193.19;;;12.12;100.00
72438;BME280;60444;43.534;-5.674;2023-04-19T05:19:43;101206.38;;;12.20;100.00
72438;BME280;60444;43.534;-5.674;2023-04-19T05:22:09;101199.34;;;12.16;100.00
72438;BME280;60444;43.534;-5.674;2023-04-19T05:24:35;101191.38;;;12.13;100.00
72438;BME280;60444;43.534;-5.674;2023-04-19T05:27:01;101210.91;;;12.19;100.00
72438;BME280;60444;43.534;-5.674;2023-04-19T05:29:26;101210.91;;;12.19;100.00
72438;BME280;60444;43.534;-5.674;2023-04-19T05:31:52;101194.09;;;12.13;100.00
72438;BME280;60444;43.534;-5.674;2023-04-19T05:34:17;101192.19;;;12.15;100.00
72438;BME280;60444;43.534;-5.674;2023-04-19T05:36:42;101193.75;;;12.19;100.00
72438;BME280;60444;43.534;-5.674;2023-04-19T05:39:08;101202.63;;;12.22;100.00
72438;BME280;60444;43.534;-5.674;2023-04-19T05:41:34;101195.63;;;12.18;100.00
72438;BME280;60444;43.534;-5.674;2023-04-19T05:43:59;101187.59;;;12.15;100.00
72438;BME280;60444;43.534;-5.674;2023-04-19T05:46:25;101178.66;;;12.13;100.00
72438;BME280;60444;43.534;-5.674;2023-04-19T05:48:50;101173.56;;;12.07;100.00
72438;BME280;60444;43.534;-5.674;2023-04-19T05:51:15;101205.28;;;12.24;100.00
72438;BME280;60444;43.534;-5.674;2023-04-19T05:53:44;101189.38;;;12.16;100.00
72438;BME280;60444;43.534;-5.674;2023-04-19T05:56:10;101195.16;;;12.27;100.00
72438;BME280;60444;43.534;-5.674;2023-04-19T05:58:35;101190.13;;;12.20;100.00
72438;BME280;60444;43.534;-5.674;2023-04-19T06:01:01;101204.22;;;12.26;100.00
72438;BME280;60444;43.534;-5.674;2023-04-19T06:03:27;101183.16;;;12.14;100.00
72438;BME280;60444;43.534;-5.674;2023-04-19T06:05:52;101190.25;;;12.17;100.00
72438;BME280;60444;43.534;-5.674;2023-04-19T06:08:18;101201.81;;;12.20;100.00
72438;BME280;60444;43.534;-5.674;2023-04-19T06:10:44;101198.63;;;12.12;100.00
72438;BME280;60444;43.534;-5.674;2023-04-19T06:13:12;101208.28;;;12.18;100.00
72438;BME280;60444;43.534;-5.674;2023-04-19T06:15:38;101202.13;;;12.14;100.00
72438;BME280;60444;43.534;-5.674;2023-04-19T06:18:04;101205.75;;;12.15;100.00
72438;BME280;60444;43.534;-5.674;2023-04-19T06:20:35;101209.31;;;12.15;100.00
72438;BME280;60444;43.534;-5.674;2023-04-19T06:23:01;101203.16;;;12.12;100.00
72438;BME280;60444;43.534;-5.674;2023-04-19T06:25:26;101201.97;;;12.17;100.00
72438;BME280;60444;43.534;-5.674;2023-04-19T06:27:52;101199.78;;;12.07;100.00
72438;BME280;60444;43.534;-5.674;2023-04-19T06:30:17;101183.81;;;12.01;100.00
72438;BME280;60444;43.534;-5.674;2023-04-19T06:32:43;101188.06;;;12.06;100.00
72438;BME280;60444;43.534;-5.674;2023-04-19T06:35:08;101216.34;;;12.19;100.00
72438;BME280;60444;43.534;-5.674;2023-04-19T06:37:34;101187.97;;;12.08;100.00
72438;BME280;60444;43.534;-5.674;2023-04-19T06:39:59;101191.28;;;12.14;100.00
72438;BME280;60444;43.534;-5.674;2023-04-19T06:42:25;101199.84;;;12.24;100.00
72438;BME280;60444;43.534;-5.674;2023-04-19T06:44:51;101185.72;;;12.17;100.00
72438;BME280;60444;43.534;-5.674;2023-04-19T06:47:17;101188.22;;;12.22;100.00
72438;BME280;60444;43.534;-5.674;2023-04-19T06:49:43;101196.81;;;12.30;100.00
72438;BME280;60444;43.534;-5.674;2023-04-19T06:52:09;101179.75;;;12.28;100.00
72438;BME280;60444;43.534;-5.674;2023-04-19T06:54:34;101183.34;;;12.28;100.00
72438;BME280;60444;43.534;-5.674;2023-04-19T06:57:00;101203.22;;;12.46;100.00
72438;BME280;60444;43.534;-5.674;2023-04-19T06:59:27;101187.03;;;12.44;100.00
72438;BME280;60444;43.534;-5.674;2023-04-19T07:01:53;101202.56;;;12.60;100.00
72438;BME280;60444;43.534;-5.674;2023-04-19T07:04:18;101202.47;;;12.61;100.00
72438;BME280;60444;43.534;-5.674;2023-04-19T07:06:48;101196.78;;;12.66;100.00
72438;BME280;60444;43.534;-5.674;2023-04-19T07:09:14;101192.50;;;12.62;100.00
72438;BME280;60444;43.534;-5.674;2023-04-19T07:11:39;101201.91;;;12.72;100.00
72438;BME280;60444;43.534;-5.674;2023-04-19T07:14:05;101199.53;;;12.83;100.00
72438;BME280;60444;43.534;-5.674;2023-04-19T07:16:31;101202.66;;;12.92;100.00
72438;BME280;60444;43.534;-5.674;2023-04-19T07:18:57;101210.38;;;13.00;100.00
72438;BME280;60444;43.534;-5.674;2023-04-19T07:21:22;101212.72;;;13.07;100.00
72438;BME280;60444;43.534;-5.674;2023-04-19T07:23:51;101187.66;;;13.02;100.00
72438;BME280;60444;43.534;-5.674;2023-04-19T07:26:16;101180.44;;;13.01;100.00
72438;BME280;60444;43.534;-5.674;2023-04-19T07:28:42;101214.53;;;13.24;100.00
72438;BME280;60444;43.534;-5.674;2023-04-19T07:31:13;101203.50;;;13.27;100.00
72438;BME280;60444;43.534;-5.674;2023-04-19T07:33:39;101204.31;;;13.29;100.00
72438;BME280;60444;43.534;-5.674;2023-04-19T07:36:05;101199.34;;;13.37;100.00
72438;BME280;60444;43.534;-5.674;2023-04-19T07:38:31;101192.22;;;13.34;100.00
72438;BME280;60444;43.534;-5.674;2023-04-19T07:40:56;101198.13;;;13.42;100.00
72438;BME280;60444;43.534;-5.674;2023-04-19T07:43:22;101183.03;;;13.37;100.00
72438;BME280;60444;43.534;-5.674;2023-04-19T07:45:47;101190.88;;;13.43;100.00
72438;BME280;60444;43.534;-5.674;2023-04-19T07:48:13;101196.75;;;13.51;100.00
72438;BME280;60444;43.534;-5.674;2023-04-19T07:50:38;101188.41;;;13.54;100.00
72438;BME280;60444;43.534;-5.674;2023-04-19T07:53:04;101192.56;;;13.61;100.00
72438;BME280;60444;43.534;-5.674;2023-04-19T07:55:29;101193.28;;;13.65;100.00
72438;BME280;60444;43.534;-5.674;2023-04-19T07:57:55;101203.66;;;13.74;100.00
72438;BME280;60444;43.534;-5.674;2023-04-19T08:00:20;101192.22;;;13.67;100.00
72438;BME280;60444;43.534;-5.674;2023-04-19T08:02:47;101191.69;;;13.76;100.00
72438;BME280;60444;43.534;-5.674;2023-04-19T08:05:15;101195.53;;;13.72;100.00
72438;BME280;60444;43.534;-5.674;2023-04-19T08:07:42;101209.09;;;13.89;100.00
72438;BME280;60444;43.534;-5.674;2023-04-19T08:10:08;101194.69;;;13.87;100.00
72438;BME280;60444;43.534;-5.674;2023-04-19T08:12:34;101211.47;;;13.95;100.00
72438;BME280;60444;43.534;-5.674;2023-04-19T08:15:01;101199.63;;;13.96;100.00
72438;BME280;60444;43.534;-5.674;2023-04-19T08:17:26;101191.22;;;14.01;100.00
72438;BME280;60444;43.534;-5.674;2023-04-19T08:19:52;101178.75;;;13.97;100.00
72438;BME280;60444;43.534;-5.674;2023-04-19T08:22:19;101185.59;;;14.04;100.00
72438;BME280;60444;43.534;-5.674;2023-04-19T08:24:47;101190.50;;;14.13;100.00
72438;BME280;60444;43.534;-5.674;2023-04-19T08:27:13;101180.66;;;14.10;100.00
72438;BME280;60444;43.534;-5.674;2023-04-19T08:29:38;101182.44;;;14.11;100.00
72438;BME280;60444;43.534;-5.674;2023-04-19T08:32:05;101199.56;;;14.29;100.00
72438;BME280;60444;43.534;-5.674;2023-04-19T08:34:30;101206.50;;;14.34;100.00
72438;BME280;60444;43.534;-5.674;2023-04-19T08:36:58;101171.56;;;14.27;100.00
72438;BME280;60444;43.534;-5.674;2023-04-19T08:39:24;101186.41;;;14.37;100.00
72438;BME280;60444;43.534;-5.674;2023-04-19T08:41:50;101202.94;;;14.48;100.00
72438;BME280;60444;43.534;-5.674;2023-04-19T08:44:16;101192.59;;;14.54;100.00
72438;BME280;60444;43.534;-5.674;2023-04-19T08:46:44;101205.22;;;14.55;100.00
72438;BME280;60444;43.534;-5.674;2023-04-19T08:49:10;101186.63;;;14.48;100.00
72438;BME280;60444;43.534;-5.674;2023-04-19T08:51:38;101181.72;;;14.54;100.00
72438;BME280;60444;43.534;-5.674;2023-04-19T08:54:05;101173.81;;;14.50;100.00
72438;BME280;60444;43.534;-5.674;2023-04-19T08:56:32;101173.19;;;14.45;100.00
72438;BME280;60444;43.534;-5.674;2023-04-19T08:58:57;101185.38;;;14.53;100.00
72438;BME280;60444;43.534;-5.674;2023-04-19T09:01:23;101192.41;;;14.57;100.00
72438;BME280;60444;43.534;-5.674;2023-04-19T09:03:49;101182.84;;;14.50;100.00
72438;BME280;60444;43.534;-5.674;2023-04-19T09:06:14;101196.91;;;14.59;100.00
72438;BME280;60444;43.534;-5.674;2023-04-19T09:08:41;101203.03;;;14.62;100.00
72438;BME280;60444;43.534;-5.674;2023-04-19T09:11:07;101204.78;;;14.63;100.00
72438;BME280;60444;43.534;-5.674;2023-04-19T09:13:32;101191.63;;;14.55;100.00
72438;BME280;60444;43.534;-5.674;2023-04-19T09:16:01;101214.53;;;14.67;100.00
72438;BME280;60444;43.534;-5.674;2023-04-19T09:18:26;101189.78;;;14.56;100.00
72438;BME280;60444;43.534;-5.674;2023-04-19T09:20:52;101214.53;;;14.67;100.00
72438;BME280;60444;43.534;-5.674;2023-04-19T09:23:23;101213.53;;;14.68;100.00
72438;BME280;60444;43.534;-5.674;2023-04-19T09:25:59;101198.66;;;14.60;100.00
72438;BME280;60444;43.534;-5.674;2023-04-19T09:28:26;101214.53;;;14.67;100.00
72438;BME280;60444;43.534;-5.674;2023-04-19T09:30:51;101217.34;;;14.66;100.00
72438;BME280;60444;43.534;-5.674;2023-04-19T09:33:30;101210.50;;;14.59;100.00
72438;BME280;60444;43.534;-5.674;2023-04-19T09:35:58;101221.72;;;14.68;100.00
72438;BME280;60444;43.534;-5.674;2023-04-19T09:38:24;101222.78;;;14.66;100.00
72438;BME280;60444;43.534;-5.674;2023-04-19T09:40:50;101205.22;;;14.55;100.00
72438;BME280;60444;43.534;-5.674;2023-04-19T09:43:25;101201.13;;;14.48;100.00
72438;BME280;60444;43.534;-5.674;2023-04-19T09:45:53;101203.84;;;14.48;100.00
72438;BME280;60444;43.534;-5.674;2023-04-19T09:48:18;101210.06;;;14.50;100.00
72438;BME280;60444;43.534;-5.674;2023-04-19T09:53:16;101213.84;;;14.48;100.00
72438;BME280;60444;43.534;-5.674;2023-04-19T09:55:44;101212.88;;;14.49;100.00
72438;BME280;60444;43.534;-5.674;2023-04-19T09:58:12;101211.06;;;14.49;100.00
72438;BME280;60444;43.534;-5.674;2023-04-19T10:00:38;101199.53;;;14.44;100.00
72438;BME280;60444;43.534;-5.674;2023-04-19T10:03:05;101215.97;;;14.59;100.00
72438;BME280;60444;43.534;-5.674;2023-04-19T10:05:33;101207.16;;;14.53;100.00
72438;BME280;60444;43.534;-5.674;2023-04-19T10:08:01;101195.97;;;14.44;100.00
72438;BME280;60444;43.534;-5.674;2023-04-19T10:10:28;101201.13;;;14.48;100.00
72438;BME280;60444;43.534;-5.674;2023-04-19T10:12:56;101218.50;;;14.62;100.00
72438;BME280;60444;43.534;-5.674;2023-04-19T10:15:24;101210.50;;;14.59;100.00
72438;BME280;60444;43.534;-5.674;2023-04-19T10:17:51;101210.03;;;14.66;100.00
72438;BME280;60444;43.534;-5.674;2023-04-19T10:20:33;101215.56;;;14.65;100.00
72438;BME280;60444;43.534;-5.674;2023-04-19T10:23:02;101198.66;;;14.60;100.00
72438;BME280;60444;43.534;-5.674;2023-04-19T10:25:30;101196.09;;;14.57;100.00
72438;BME280;60444;43.534;-5.674;2023-04-19T10:27:56;101201.28;;;14.61;100.00
72438;BME280;60444;43.534;-5.674;2023-04-19T10:30:23;101198.53;;;14.61;100.00
72438;BME280;60444;43.534;-5.674;2023-04-19T10:32:54;101187.16;;;14.54;100.00
72438;BME280;60444;43.534;-5.674;2023-04-19T10:38:10;101205.28;;;14.70;100.00
72438;BME280;60444;43.534;-5.674;2023-04-19T10:40:55;101206.16;;;14.70;100.00
72438;BME280;60444;43.534;-5.674;2023-04-19T10:43:45;101203.25;;;14.73;100.00
72438;BME280;60444;43.534;-5.674;2023-04-19T10:49:02;101206.97;;;14.72;100.00
72438;BME280;60444;43.534;-5.674;2023-04-19T10:51:34;101197.09;;;14.70;100.00
72438;BME280;60444;43.534;-5.674;2023-04-19T10:54:01;101195.19;;;14.72;100.00
72438;BME280;60444;43.534;-5.674;2023-04-19T11:01:36;101179.38;;;14.78;100.00
72438;BME280;60444;43.534;-5.674;2023-04-19T11:04:07;101167.84;;;14.73;100.00
72438;BME280;60444;43.534;-5.674;2023-04-19T11:06:34;101167.38;;;14.81;100.00
72438;BME280;60444;43.534;-5.674;2023-04-19T11:09:00;101178.13;;;14.84;100.00
72438;BME280;60444;43.534;-5.674;2023-04-19T11:11:32;101187.09;;;14.86;100.00
72438;BME280;60444;43.534;-5.674;2023-04-19T11:13:59;101182.13;;;14.92;100.00
72438;BME280;60444;43.534;-5.674;2023-04-19T11:16:26;101175.69;;;14.93;100.00
72438;BME280;60444;43.534;-5.674;2023-04-19T11:18:52;101159.84;;;14.86;100.00
72438;BME280;60444;43.534;-5.674;2023-04-19T11:21:18;101178.41;;;14.93;100.00
72438;BME280;60444;43.534;-5.674;2023-04-19T11:23:44;101149.31;;;14.80;100.00
72438;BME280;60444;43.534;-5.674;2023-04-19T11:26:12;101170.88;;;14.98;100.00
72438;BME280;60444;43.534;-5.674;2023-04-19T11:28:38;101169.78;;;15.01;100.00
72438;BME280;60444;43.534;-5.674;2023-04-19T11:31:04;101169.09;;;14.97;100.00
72438;BME280;60444;43.534;-5.674;2023-04-19T11:33:36;101168.22;;;14.97;100.00
72438;BME280;60444;43.534;-5.674;2023-04-19T11:36:02;101162.38;;;15.03;100.00
72438;BME280;60444;43.534;-5.674;2023-04-19T11:38:29;101154.44;;;15.14;100.00
72438;BME280;60444;43.534;-5.674;2023-04-19T11:41:02;101163.56;;;15.13;100.00
72438;BME280;60444;43.534;-5.674;2023-04-19T11:43:32;101162.25;;;15.20;100.00
72438;BME280;60444;43.534;-5.674;2023-04-19T11:46:04;101153.44;;;15.15;100.00
72438;BME280;60444;43.534;-5.674;2023-04-19T11:48:30;101162.81;;;15.25;100.00
72438;BME280;60444;43.534;-5.674;2023-04-19T11:50:57;101151.72;;;15.28;100.00
72438;BME280;60444;43.534;-5.674;2023-04-19T11:53:24;101152.69;;;15.27;100.00
72438;BME280;60444;43.534;-5.674;2023-04-19T11:55:56;101160.47;;;15.33;100.00
72438;BME280;60444;43.534;-5.674;2023-04-19T11:58:26;101155.53;;;15.39;100.00
72438;BME280;60444;43.534;-5.674;2023-04-19T12:00:54;101154.75;;;15.37;100.00
72438;BME280;60444;43.534;-5.674;2023-04-19T12:03:21;101144.41;;;15.28;100.00
72438;BME280;60444;43.534;-5.674;2023-04-19T12:05:57;101136.56;;;15.38;100.00
72438;BME280;60444;43.534;-5.674;2023-04-19T12:08:34;101142.72;;;15.41;100.00
72438;BME280;60444;43.534;-5.674;2023-04-19T12:11:00;101138.63;;;15.48;100.00
72438;BME280;60444;43.534;-5.674;2023-04-19T12:13:28;101135.41;;;15.56;100.00
72438;BME280;60444;43.534;-5.674;2023-04-19T12:15:54;101127.41;;;15.53;100.00
72438;BME280;60444;43.534;-5.674;2023-04-19T12:18:21;101113.66;;;15.54;100.00
72438;BME280;60444;43.534;-5.674;2023-04-19T12:20:48;101134.72;;;15.67;100.00
72438;BME280;60444;43.534;-5.674;2023-04-19T12:23:14;101119.63;;;15.61;100.00
72438;BME280;60444;43.534;-5.674;2023-04-19T12:25:42;101117.56;;;15.65;100.00
72438;BME280;60444;43.534;-5.674;2023-04-19T12:28:08;101115.63;;;15.67;100.00
72438;BME280;60444;43.534;-5.674;2023-04-19T12:30:37;101108.03;;;15.57;100.00
72438;BME280;60444;43.534;-5.674;2023-04-19T12:33:04;101122.53;;;15.72;100.00
72438;BME280;60444;43.534;-5.674;2023-04-19T12:35:30;101096.53;;;15.52;100.00
72438;BME280;60444;43.534;-5.674;2023-04-19T12:37:57;101127.19;;;15.70;100.00
72438;BME280;60444;43.534;-5.674;2023-04-19T12:40:23;101116.84;;;15.75;100.00